Time;durP1;ratioP1;P1;durP2;ratioP2;P2;SDS_P1;SDS_P2;PMS_P1;PMS_P2;Temp;Humidity;BMP_temperature;BMP_pressure;BME280_temperature;BME280_humidity;BME280_pressure;Samples;Min_cycle;Max_cycle;Signal;HPM_P1;HPM_P2
2022/04/24 00:01:50;;;;;;;;;;;;;;;21.35;70.24;96507.89;578382;243;66967;-73
2022/04/24 00:04:17;;;;;;;;;;;;;;;21.34;70.79;96509.78;578409;245;65411;-73
2022/04/24 00:06:46;;;;;;;;;;;;;;;21.33;70.63;96510.84;578461;243;65108;-72
2022/04/24 00:09:15;;;;;;;;;;;;;;;21.33;70.91;96510.84;578425;243;64559;-72
2022/04/24 00:11:43;;;;;;;;;;;;;;;21.33;70.46;96510.84;576880;244;63054;-73
2022/04/24 00:14:10;;;;;;;;;;;;;;;21.32;69.76;96503.91;579043;242;65787;-72
2022/04/24 00:16:39;;;;;;;;;;;;;;;21.33;70.43;96505.49;578504;244;66907;-72
2022/04/24 00:19:07;;;;;;;;;;;;;;;21.31;69.98;96509.53;578462;245;65416;-72
2022/04/24 00:21:34;;;;;;;;;;;;;;;21.33;70.64;96510.05;578472;245;67081;-72
2022/04/24 00:24:02;;;;;;;;;;;;;;;21.31;69.33;96513.02;578658;244;64574;-72
2022/04/24 00:26:30;;;;;;;;;;;;;;;21.30;69.84;96511.41;578449;245;65390;-72
2022/04/24 00:28:57;;;;;;;;;;;;;;;21.30;70.24;96516.76;578400;245;67239;-72
2022/04/24 00:31:25;;;;;;;;;;;;;;;21.30;69.95;96519.43;578485;244;67136;-72
2022/04/24 00:33:52;;;;;;;;;;;;;;;21.30;69.37;96522.11;583068;241;65379;-72
2022/04/24 00:36:20;;;;;;;;;;;;;;;21.29;70.39;96518.64;585508;242;67163;-72
2022/04/24 00:38:47;;;;;;;;;;;;;;;21.29;70.80;96517.85;585448;242;66901;-72
2022/04/24 00:41:15;;;;;;;;;;;;;;;21.29;70.07;96526.66;585514;242;65483;-72
2022/04/24 00:43:44;;;;;;;;;;;;;;;21.28;69.04;96518.94;585492;242;67100;-72
2022/04/24 00:46:30;;;;;;;;;;;;;;;21.30;70.15;96514.09;584771;242;48139;-73
2022/04/24 00:48:57;;;;;;;;;;;;;;;21.28;70.71;96510.92;585533;242;65275;-73
2022/04/24 00:51:25;;;;;;;;;;;;;;;21.27;69.28;96507.43;585517;242;64533;-73
2022/04/24 00:53:53;;;;;;;;;;;;;;;21.27;70.58;96504.76;585403;242;64822;-73
2022/04/24 00:56:22;;;;;;;;;;;;;;;21.26;70.78;96511.20;585476;242;65182;-73
2022/04/24 00:58:50;;;;;;;;;;;;;;;21.26;70.07;96507.73;585451;242;65078;-73
2022/04/24 01:01:18;;;;;;;;;;;;;;;21.27;71.05;96512.77;585523;242;66965;-73
2022/04/24 01:03:45;;;;;;;;;;;;;;;21.26;70.56;96505.06;585479;242;65177;-73
2022/04/24 01:06:13;;;;;;;;;;;;;;;21.26;70.37;96507.73;585484;242;67218;-73
2022/04/24 01:08:40;;;;;;;;;;;;;;;21.24;69.49;96508.00;585532;242;66991;-73
2022/04/24 01:11:08;;;;;;;;;;;;;;;21.24;69.60;96513.34;585518;242;65265;-73
2022/04/24 01:13:35;;;;;;;;;;;;;;;21.24;70.23;96508.00;585626;242;67066;-73
2022/04/24 01:16:03;;;;;;;;;;;;;;;21.25;70.34;96503.45;585552;242;66878;-73
2022/04/24 01:18:32;;;;;;;;;;;;;;;21.23;69.84;96503.75;585551;242;65437;-73
2022/04/24 01:21:01;;;;;;;;;;;;;;;21.23;69.42;96500.29;585503;242;66895;-73
2022/04/24 01:23:28;;;;;;;;;;;;;;;21.23;70.12;96497.62;585367;242;64776;-73
2022/04/24 01:25:57;;;;;;;;;;;;;;;21.23;70.52;96500.29;585606;242;62967;-73
2022/04/24 01:28:24;;;;;;;;;;;;;;;21.23;70.25;96500.29;585560;242;67120;-73
2022/04/24 01:30:52;;;;;;;;;;;;;;;21.22;69.82;96501.34;585528;242;67086;-73
2022/04/24 01:33:19;;;;;;;;;;;;;;;21.23;70.42;96502.96;585884;242;65206;-73
2022/04/24 01:35:49;;;;;;;;;;;;;;;21.22;70.23;96509.36;586466;242;67118;-73
2022/04/24 01:38:17;;;;;;;;;;;;;;;21.21;69.37;96503.23;586546;242;64422;-73
2022/04/24 01:40:44;;;;;;;;;;;;;;;21.21;70.69;96505.91;586564;242;63363;-73
2022/04/24 01:43:12;;;;;;;;;;;;;;;21.21;70.26;96507.78;586490;242;64553;-73
2022/04/24 01:45:39;;;;;;;;;;;;;;;21.20;69.70;96504.32;586460;242;66739;-73
2022/04/24 01:48:07;;;;;;;;;;;;;;;21.20;69.93;96506.99;586426;242;65019;-73
2022/04/24 01:50:34;;;;;;;;;;;;;;;21.20;68.12;96511.55;586509;242;66779;-73
2022/04/24 01:53:02;;;;;;;;;;;;;;;21.19;69.57;96512.61;586532;242;66727;-73
2022/04/24 01:55:30;;;;;;;;;;;;;;;21.19;69.91;96501.92;586490;242;65611;-73
2022/04/24 01:57:57;;;;;;;;;;;;;;;21.19;71.08;96501.92;586452;242;65539;-73
2022/04/24 02:00:25;;;;;;;;;;;;;;;21.18;69.66;96511.03;586467;242;65683;-73
2022/04/24 02:02:52;;;;;;;;;;;;;;;21.18;69.92;96505.69;586490;242;65090;-73
2022/04/24 02:05:19;;;;;;;;;;;;;;;21.18;69.76;96511.03;586539;242;67072;-73
2022/04/24 02:07:47;;;;;;;;;;;;;;;21.18;70.47;96519.84;586462;242;66915;-73
2022/04/24 02:10:15;;;;;;;;;;;;;;;21.18;69.38;96521.72;586459;242;63390;-73
2022/04/24 02:12:44;;;;;;;;;;;;;;;21.17;69.93;96514.77;583041;241;67391;-73
2022/04/24 02:15:12;;;;;;;;;;;;;;;21.16;70.31;96521.98;579202;244;64729;-73
2022/04/24 02:17:39;;;;;;;;;;;;;;;21.17;69.78;96520.92;573330;247;63180;-73
2022/04/24 02:20:07;;;;;;;;;;;;;;;21.17;70.75;96520.92;586468;240;65029;-73
2022/04/24 02:22:35;;;;;;;;;;;;;;;21.15;70.26;96520.41;586473;242;64706;-73
2022/04/24 02:25:04;;;;;;;;;;;;;;;21.16;69.74;96513.19;586407;242;65343;-73
2022/04/24 02:27:32;;;;;;;;;;;;;;;21.16;69.81;96521.98;586440;242;64710;-73
2022/04/24 02:29:59;;;;;;;;;;;;;;;21.16;71.02;96527.33;586411;241;66951;-73
2022/04/24 02:32:27;;;;;;;;;;;;;;;21.15;70.93;96516.94;586464;241;65485;-73
2022/04/24 02:34:54;;;;;;;;;;;;;;;21.14;70.01;96518.80;585474;242;67052;-73
2022/04/24 02:37:22;;;;;;;;;;;;;;;21.15;70.90;96524.95;585804;240;66896;-73
2022/04/24 02:39:50;;;;;;;;;;;;;;;21.14;70.25;96518.80;585527;242;65023;-73
2022/04/24 02:42:17;;;;;;;;;;;;;;;21.15;70.58;96530.30;585551;240;67053;-73
2022/04/24 02:44:45;;;;;;;;;;;;;;;21.14;70.63;96542.05;585494;242;64874;-73
2022/04/24 02:47:12;;;;;;;;;;;;;;;21.13;70.11;96538.59;585457;242;63125;-73
2022/04/24 02:49:39;;;;;;;;;;;;;;;21.12;69.93;96542.35;585490;242;64886;-73
2022/04/24 02:52:07;;;;;;;;;;;;;;;21.12;70.45;96536.22;585569;242;66620;-73
2022/04/24 02:54:35;;;;;;;;;;;;;;;21.12;70.32;96537.01;585557;242;63108;-73
2022/04/24 02:57:03;;;;;;;;;;;;;;;21.12;69.60;96538.89;585544;242;67098;-73
2022/04/24 02:59:32;;;;;;;;;;;;;;;21.11;69.15;96539.95;585456;242;65136;-73
2022/04/24 03:01:59;;;;;;;;;;;;;;;21.12;69.64;96549.58;585517;240;65478;-73
2022/04/24 03:04:27;;;;;;;;;;;;;;;21.12;69.99;96557.59;585569;242;67104;-73
2022/04/24 03:06:54;;;;;;;;;;;;;;;21.11;69.76;96553.31;585537;242;66926;-73
2022/04/24 03:09:22;;;;;;;;;;;;;;;21.11;70.31;96550.64;585516;242;65202;-73
2022/04/24 03:11:49;;;;;;;;;;;;;;;21.11;69.97;96550.64;585513;242;64845;-73
2022/04/24 03:14:17;;;;;;;;;;;;;;;21.09;69.54;96553.61;585532;242;64812;-73
2022/04/24 03:16:44;;;;;;;;;;;;;;;21.09;69.41;96550.94;585593;242;63038;-73
2022/04/24 03:19:12;;;;;;;;;;;;;;;21.09;69.96;96552.78;585479;240;64588;-73
2022/04/24 03:21:39;;;;;;;;;;;;;;;21.08;70.12;96554.67;585519;242;64885;-73
2022/04/24 03:24:07;;;;;;;;;;;;;;;21.09;70.30;96552.78;585740;240;65871;-73
2022/04/24 03:26:35;;;;;;;;;;;;;;;21.09;70.45;96555.45;585485;240;67300;-73
2022/04/24 03:29:03;;;;;;;;;;;;;;;21.07;70.26;96550.41;585525;242;67173;-73
2022/04/24 03:31:30;;;;;;;;;;;;;;;21.06;69.66;96554.97;585467;242;65499;-73
2022/04/24 03:33:58;;;;;;;;;;;;;;;21.08;69.86;96551.20;585792;240;67107;-73
2022/04/24 03:36:26;;;;;;;;;;;;;;;21.06;70.27;96560.31;585510;242;64802;-73
2022/04/24 03:38:53;;;;;;;;;;;;;;;21.06;70.33;96556.81;585482;242;65436;-73
2022/04/24 03:41:21;;;;;;;;;;;;;;;21.07;70.01;96561.10;585647;240;67113;-73
2022/04/24 03:43:48;;;;;;;;;;;;;;;21.06;69.76;96573.67;585560;242;67103;-73
2022/04/24 03:46:16;;;;;;;;;;;;;;;21.05;70.51;96564.05;585554;240;66268;-73
2022/04/24 03:48:43;;;;;;;;;;;;;;;21.05;69.70;96564.05;585549;242;67085;-73
2022/04/24 03:51:11;;;;;;;;;;;;;;;21.04;69.26;96569.68;585654;240;66908;-73
2022/04/24 03:53:38;;;;;;;;;;;;;;;21.04;69.61;96572.36;585539;242;66413;-73
2022/04/24 03:56:06;;;;;;;;;;;;;;;21.05;69.91;96579.28;585533;240;64976;-73
2022/04/24 03:58:34;;;;;;;;;;;;;;;21.04;69.68;96575.03;585554;242;64824;-73
2022/04/24 04:01:01;;;;;;;;;;;;;;;21.04;70.11;96577.70;585594;242;65468;-73
2022/04/24 04:03:29;;;;;;;;;;;;;;;21.04;70.25;96588.38;585545;240;67002;-73
2022/04/24 04:05:56;;;;;;;;;;;;;;;21.03;69.44;96576.08;585500;242;66751;-73
2022/04/24 04:08:24;;;;;;;;;;;;;;;21.03;69.58;96573.41;585907;240;65244;-73
2022/04/24 04:10:51;;;;;;;;;;;;;;;21.02;70.00;96569.95;585466;242;64902;-73
2022/04/24 04:13:19;;;;;;;;;;;;;;;21.02;70.49;96572.63;585550;242;67169;-73
2022/04/24 04:15:47;;;;;;;;;;;;;;;21.01;70.12;96573.71;585434;242;65483;-73
2022/04/24 04:18:14;;;;;;;;;;;;;;;21.01;70.29;96575.59;585517;240;67246;-73
2022/04/24 04:20:44;;;;;;;;;;;;;;;21.00;70.30;96580.11;585527;242;66893;-73
2022/04/24 04:23:11;;;;;;;;;;;;;;;21.01;70.35;96584.40;585552;242;63080;-73
2022/04/24 04:25:38;;;;;;;;;;;;;;;21.00;70.39;96577.44;585601;240;64721;-73
2022/04/24 04:28:06;;;;;;;;;;;;;;;21.00;71.05;96584.66;585504;242;64848;-73
2022/04/24 04:30:34;;;;;;;;;;;;;;;20.99;70.29;96591.89;585458;242;65646;-73
2022/04/24 04:33:01;;;;;;;;;;;;;;;20.99;70.41;96583.88;585466;242;67148;-73
2022/04/24 04:35:29;;;;;;;;;;;;;;;20.99;69.83;96586.55;585621;240;67038;-73
2022/04/24 04:37:56;;;;;;;;;;;;;;;21.00;70.09;96587.34;585480;242;65489;-73
2022/04/24 04:40:26;;;;;;;;;;;;;;;20.99;68.60;96585.75;585534;240;67309;-73
2022/04/24 04:42:53;;;;;;;;;;;;;;;20.98;69.61;96587.63;585462;242;66912;-73
2022/04/24 04:45:21;;;;;;;;;;;;;;;20.97;69.91;96594.03;585470;240;65404;-73
2022/04/24 04:47:48;;;;;;;;;;;;;;;20.97;69.96;96583.34;585565;242;64949;-73
2022/04/24 04:50:16;;;;;;;;;;;;;;;20.98;69.69;96595.65;585645;240;66899;-73
2022/04/24 04:52:44;;;;;;;;;;;;;;;20.96;70.25;96589.78;585495;242;63204;-73
2022/04/24 04:55:11;;;;;;;;;;;;;;;20.96;69.56;96591.66;585520;240;67156;-73
2022/04/24 04:57:39;;;;;;;;;;;;;;;20.96;69.34;96592.45;585477;242;67110;-73
2022/04/24 05:00:07;;;;;;;;;;;;;;;20.95;70.49;96590.88;585475;242;65450;-73
2022/04/24 05:02:38;;;;;;;;;;;;;;;20.96;69.59;96591.66;585564;242;66885;-73
2022/04/24 05:05:06;;;;;;;;;;;;;;;20.96;70.39;96580.98;585618;242;64803;-74
2022/04/24 05:07:34;;;;;;;;;;;;;;;20.96;70.21;96583.65;585447;242;65595;-74
2022/04/24 05:10:01;;;;;;;;;;;;;;;20.95;69.50;96590.88;585520;242;67085;-74
2022/04/24 05:12:30;;;;;;;;;;;;;;;20.95;70.18;96580.19;585487;240;66931;-74
2022/04/24 05:15:01;;;;;;;;;;;;;;;20.95;70.51;96579.37;585514;242;63105;-74
2022/04/24 05:17:28;;;;;;;;;;;;;;;20.94;69.92;96583.91;585543;242;64959;-72
2022/04/24 05:19:56;;;;;;;;;;;;;;;20.93;69.30;96576.20;585513;242;64537;-72
2022/04/24 05:22:24;;;;;;;;;;;;;;;20.93;70.34;96568.19;585423;242;63316;-72
2022/04/24 05:24:51;;;;;;;;;;;;;;;20.93;70.30;96566.31;585645;240;64871;-72
2022/04/24 05:27:19;;;;;;;;;;;;;;;20.92;70.12;96564.70;585538;242;68140;-72
2022/04/24 05:29:47;;;;;;;;;;;;;;;20.92;70.25;96564.70;585498;240;65454;-72
2022/04/24 05:32:15;;;;;;;;;;;;;;;20.92;70.75;96556.68;585578;240;64954;-72
2022/04/24 05:34:43;;;;;;;;;;;;;;;20.92;70.25;96553.22;584943;241;64876;-72
2022/04/24 05:37:11;;;;;;;;;;;;;;;20.91;70.43;96563.11;587255;241;63271;-72
2022/04/24 05:39:38;;;;;;;;;;;;;;;20.91;70.03;96552.42;586051;242;67099;-72
2022/04/24 05:42:06;;;;;;;;;;;;;;;20.91;70.00;96549.76;586151;242;66700;-72
2022/04/24 05:44:34;;;;;;;;;;;;;;;20.92;70.78;96553.22;586075;240;65561;-72
2022/04/24 05:47:01;;;;;;;;;;;;;;;20.89;69.31;96549.23;586088;242;66575;-72
2022/04/24 05:49:29;;;;;;;;;;;;;;;20.91;70.38;96551.64;586050;242;66717;-72
2022/04/24 05:51:56;;;;;;;;;;;;;;;20.90;70.08;96542.83;586049;242;65047;-72
2022/04/24 05:54:24;;;;;;;;;;;;;;;20.90;69.81;96547.36;586126;242;67169;-72
2022/04/24 05:56:51;;;;;;;;;;;;;;;20.90;70.18;96545.50;586103;242;64657;-72
2022/04/24 05:59:19;;;;;;;;;;;;;;;20.89;69.68;96543.89;586083;242;65396;-72
2022/04/24 06:01:46;;;;;;;;;;;;;;;20.89;69.71;96540.43;586077;242;66811;-72
2022/04/24 06:04:14;;;;;;;;;;;;;;;20.89;70.55;96540.43;586042;242;66662;-72
2022/04/24 06:06:41;;;;;;;;;;;;;;;20.88;70.38;96536.17;586048;242;65435;-72
2022/04/24 06:09:09;;;;;;;;;;;;;;;20.87;70.51;96538.06;586112;242;67037;-72
2022/04/24 06:11:41;;;;;;;;;;;;;;;20.87;69.98;96538.06;586064;242;66993;-72
2022/04/24 06:14:05;;;;;;;;;;;;;;;20.87;70.69;96532.72;585945;242;65528;-72
2022/04/24 06:16:33;;;;;;;;;;;;;;;20.86;69.41;96528.44;586012;242;67077;-72
2022/04/24 06:19:00;;;;;;;;;;;;;;;20.88;70.75;96536.97;586021;242;66908;-72
2022/04/24 06:21:28;;;;;;;;;;;;;;;20.88;70.29;96533.50;586084;242;65409;-72
2022/04/24 06:23:55;;;;;;;;;;;;;;;20.89;70.14;96537.76;586048;242;67047;-72
2022/04/24 06:26:23;;;;;;;;;;;;;;;20.89;70.48;96533.20;586032;242;66875;-71
2022/04/24 06:28:50;;;;;;;;;;;;;;;20.90;70.36;96540.16;586084;242;65364;-72
2022/04/24 06:31:18;;;;;;;;;;;;;;;20.90;70.63;96534.00;586017;242;67287;-72
2022/04/24 06:33:45;;;;;;;;;;;;;;;20.90;70.18;96532.15;585827;241;66663;-72
2022/04/24 06:36:13;;;;;;;;;;;;;;;20.89;70.57;96527.86;585517;242;65427;-72
2022/04/24 06:38:40;;;;;;;;;;;;;;;20.91;69.76;96530.27;585548;242;67085;-72
2022/04/24 06:41:08;;;;;;;;;;;;;;;20.90;70.07;96526.80;585634;239;67240;-72
2022/04/24 06:43:35;;;;;;;;;;;;;;;20.90;69.89;96524.14;585614;241;65550;-72
2022/04/24 06:46:03;;;;;;;;;;;;;;;20.91;69.68;96523.05;585868;239;67114;-72
2022/04/24 06:48:31;;;;;;;;;;;;;;;20.90;70.62;96526.80;585576;242;66723;-72
2022/04/24 06:50:58;;;;;;;;;;;;;;;20.89;70.09;96519.86;585553;241;65367;-72
2022/04/24 06:53:28;;;;;;;;;;;;;;;20.89;70.74;96517.18;585633;239;67061;-72
2022/04/24 06:55:56;;;;;;;;;;;;;;;20.91;70.23;96515.03;585558;242;67070;-72
2022/04/24 06:58:26;;;;;;;;;;;;;;;20.92;69.99;96519.28;585882;240;63019;-72
2022/04/24 07:00:55;;;;;;;;;;;;;;;20.91;70.12;96512.36;586150;240;66792;-72
2022/04/24 07:03:24;;;;;;;;;;;;;;;20.92;70.49;96511.27;585636;240;66891;-72
2022/04/24 07:05:56;;;;;;;;;;;;;;;20.91;70.02;96506.23;585535;242;65361;-72
2022/04/24 07:08:27;;;;;;;;;;;;;;;20.90;69.87;96508.11;585582;242;67463;-72
2022/04/24 07:10:54;;;;;;;;;;;;;;;20.92;70.36;96499.80;585573;240;66929;-73
2022/04/24 07:13:22;;;;;;;;;;;;;;;20.91;70.07;96500.89;585611;242;64961;-73
2022/04/24 07:15:51;;;;;;;;;;;;;;;20.92;69.43;96505.14;585510;242;64781;-73
2022/04/24 07:18:19;;;;;;;;;;;;;;;20.92;70.90;96499.80;585535;242;67047;-73
2022/04/24 07:20:47;;;;;;;;;;;;;;;20.91;70.92;96499.01;585579;242;65357;-73
2022/04/24 07:23:15;;;;;;;;;;;;;;;20.90;70.39;96492.09;585550;242;65048;-73
2022/04/24 07:25:46;;;;;;;;;;;;;;;20.89;70.45;96493.14;585586;242;66947;-72
2022/04/24 07:28:14;;;;;;;;;;;;;;;20.89;70.40;96490.47;585555;242;63088;-73
2022/04/24 07:30:42;;;;;;;;;;;;;;;20.89;70.54;96490.47;585483;242;67147;-73
2022/04/24 07:33:09;;;;;;;;;;;;;;;20.90;70.50;96486.74;585443;242;66898;-73
2022/04/24 07:35:38;;;;;;;;;;;;;;;20.89;70.05;96490.47;585835;240;65357;-73
2022/04/24 07:38:05;;;;;;;;;;;;;;;20.90;69.92;96492.09;585624;240;64729;-73
2022/04/24 07:40:35;;;;;;;;;;;;;;;20.91;70.81;96484.86;585438;240;64805;-73
2022/04/24 07:43:04;;;;;;;;;;;;;;;20.90;70.40;96488.59;585495;242;65326;-73
2022/04/24 07:45:33;;;;;;;;;;;;;;;20.90;70.47;96478.73;585441;242;65123;-72
2022/04/24 07:48:01;;;;;;;;;;;;;;;20.90;70.75;96476.06;585487;242;64611;-73
2022/04/24 07:50:30;;;;;;;;;;;;;;;20.89;70.09;96474.45;585522;242;63096;-73
2022/04/24 07:52:57;;;;;;;;;;;;;;;20.90;70.09;96476.06;585584;242;67083;-72
2022/04/24 07:55:25;;;;;;;;;;;;;;;20.89;69.70;96469.11;585857;240;67364;-72
2022/04/24 07:57:54;;;;;;;;;;;;;;;20.89;70.36;96469.11;585493;242;63253;-73
2022/04/24 08:00:22;;;;;;;;;;;;;;;20.87;70.40;96463.27;585458;242;67131;-72
2022/04/24 08:02:54;;;;;;;;;;;;;;;20.88;70.38;96464.86;585843;240;66783;-73
2022/04/24 08:05:25;;;;;;;;;;;;;;;20.89;70.45;96458.42;585547;241;65361;-72
2022/04/24 08:07:53;;;;;;;;;;;;;;;20.88;70.27;96466.73;585470;240;65005;-73
2022/04/24 08:10:21;;;;;;;;;;;;;;;20.88;70.29;96459.52;585493;242;66952;-72
2022/04/24 08:12:49;;;;;;;;;;;;;;;20.90;71.07;96456.54;585581;240;65530;-73
2022/04/24 08:15:17;;;;;;;;;;;;;;;20.89;70.77;96457.63;585435;242;66801;-73
2022/04/24 08:17:45;;;;;;;;;;;;;;;20.88;70.74;96456.84;585541;242;66936;-72
2022/04/24 08:20:13;;;;;;;;;;;;;;;20.88;70.20;96450.71;585453;242;65597;-72
2022/04/24 08:22:42;;;;;;;;;;;;;;;20.87;71.57;96446.43;585481;242;67202;-73
2022/04/24 08:25:10;;;;;;;;;;;;;;;20.87;70.59;96447.25;585491;242;64931;-73
2022/04/24 08:27:38;;;;;;;;;;;;;;;20.89;70.87;96447.73;585716;240;65394;-72
2022/04/24 08:30:07;;;;;;;;;;;;;;;20.88;70.74;96445.37;585459;242;67067;-71
2022/04/24 08:32:35;;;;;;;;;;;;;;;20.89;70.71;96446.95;585548;242;67330;-71
2022/04/24 08:35:03;;;;;;;;;;;;;;;20.89;70.38;96436.27;585542;242;65529;-72
2022/04/24 08:37:30;;;;;;;;;;;;;;;20.88;70.62;96440.81;585535;242;67423;-71
2022/04/24 08:39:58;;;;;;;;;;;;;;;20.87;70.61;96433.89;585615;240;66902;-72
2022/04/24 08:42:26;;;;;;;;;;;;;;;20.86;70.72;96428.83;585535;242;65370;-71
2022/04/24 08:44:57;;;;;;;;;;;;;;;20.87;70.31;96427.73;585526;240;65139;-72
2022/04/24 08:47:25;;;;;;;;;;;;;;;20.87;70.40;96428.55;585537;242;67165;-72
2022/04/24 08:49:57;;;;;;;;;;;;;;;20.87;69.95;96430.41;585504;242;63169;-72
2022/04/24 08:52:27;;;;;;;;;;;;;;;20.88;70.34;96418.66;585328;241;67308;-72
2022/04/24 08:54:55;;;;;;;;;;;;;;;20.86;70.58;96416.27;585740;240;65794;-72
2022/04/24 08:57:30;;;;;;;;;;;;;;;20.87;70.74;96415.20;585537;240;63209;-72
2022/04/24 08:59:58;;;;;;;;;;;;;;;20.86;69.86;96415.47;585609;242;64931;-73
2022/04/24 09:02:26;;;;;;;;;;;;;;;20.85;70.46;96409.34;585646;240;66775;-73
2022/04/24 09:04:55;;;;;;;;;;;;;;;20.86;70.15;96413.59;585505;242;65546;-72
2022/04/24 09:07:24;;;;;;;;;;;;;;;20.87;70.49;96406.37;585468;242;65130;-73
2022/04/24 09:09:53;;;;;;;;;;;;;;;20.87;70.64;96406.37;585527;242;67481;-73
2022/04/24 09:12:25;;;;;;;;;;;;;;;20.87;69.98;96407.19;585547;240;63083;-73
2022/04/24 09:14:53;;;;;;;;;;;;;;;20.86;70.21;96402.91;585509;240;67089;-74
2022/04/24 09:17:24;;;;;;;;;;;;;;;20.86;70.12;96397.56;585510;242;67118;-74
2022/04/24 09:19:52;;;;;;;;;;;;;;;20.85;70.22;96398.66;585922;240;63240;-73
2022/04/24 09:22:20;;;;;;;;;;;;;;;20.86;70.47;96394.89;585413;242;67208;-73
2022/04/24 09:25:03;;;;;;;;;;;;;;;20.86;70.32;96391.44;585534;242;66977;-73
2022/04/24 09:27:28;;;;;;;;;;;;;;;20.83;70.14;96385.58;585450;240;65274;-73
2022/04/24 09:29:57;;;;;;;;;;;;;;;20.84;70.17;96394.38;585433;242;66759;-73
2022/04/24 09:32:25;;;;;;;;;;;;;;;20.84;69.88;96389.03;585460;242;64881;-73
2022/04/24 09:34:53;;;;;;;;;;;;;;;20.84;70.19;96387.19;585471;242;65613;-73
2022/04/24 09:37:21;;;;;;;;;;;;;;;20.84;69.76;96389.03;585443;242;67371;-73
2022/04/24 09:39:49;;;;;;;;;;;;;;;20.84;70.41;96389.03;585632;240;64663;-73
2022/04/24 09:42:18;;;;;;;;;;;;;;;20.84;70.15;96392.53;585450;242;65600;-73
2022/04/24 09:44:50;;;;;;;;;;;;;;;20.84;70.91;96386.36;585479;242;64921;-73
2022/04/24 09:47:18;;;;;;;;;;;;;;;20.85;70.10;96393.31;585440;240;66920;-73
2022/04/24 09:49:47;;;;;;;;;;;;;;;20.84;70.55;96381.02;585566;242;65432;-73
2022/04/24 09:52:15;;;;;;;;;;;;;;;20.83;70.02;96372.22;585719;240;64813;-73
2022/04/24 09:54:44;;;;;;;;;;;;;;;20.83;70.20;96366.09;585566;242;64418;-73
2022/04/24 09:57:13;;;;;;;;;;;;;;;20.82;70.02;96370.64;585476;242;65407;-73
2022/04/24 09:59:41;;;;;;;;;;;;;;;20.84;70.69;96373.83;585424;242;64603;-73
2022/04/24 10:02:09;;;;;;;;;;;;;;;20.83;70.10;96358.88;585473;242;64596;-73
2022/04/24 10:04:38;;;;;;;;;;;;;;;20.83;70.27;96363.42;585516;242;63034;-73
2022/04/24 10:07:06;;;;;;;;;;;;;;;20.81;69.96;96368.24;585542;242;66967;-73
2022/04/24 10:09:35;;;;;;;;;;;;;;;20.82;70.47;96361.84;585485;240;64385;-73
2022/04/24 10:12:04;;;;;;;;;;;;;;;20.82;70.21;96361.84;585490;242;65401;-73
2022/04/24 10:14:32;;;;;;;;;;;;;;;20.81;70.41;96369.03;585435;242;64699;-73
2022/04/24 10:17:04;;;;;;;;;;;;;;;20.82;69.73;96357.29;585528;240;66653;-73
2022/04/24 10:19:39;;;;;;;;;;;;;;;20.82;70.26;96361.84;585464;242;65252;-73
2022/04/24 10:22:25;;;;;;;;;;;;;;;20.82;69.63;96361.84;585319;242;67210;-73
2022/04/24 10:24:54;;;;;;;;;;;;;;;20.82;70.18;96362.63;585518;242;67850;-72
2022/04/24 10:27:21;;;;;;;;;;;;;;;20.81;70.41;96362.91;585337;242;63273;-72
2022/04/24 10:29:50;;;;;;;;;;;;;;;20.82;69.57;96367.19;585464;242;64909;-73
2022/04/24 10:32:33;;;;;;;;;;;;;;;20.81;69.64;96371.70;585482;242;66946;-73
2022/04/24 10:35:00;;;;;;;;;;;;;;;20.81;70.11;96360.23;585544;242;65205;-73
2022/04/24 10:37:29;;;;;;;;;;;;;;;20.82;70.02;96367.19;585769;240;67159;-73
2022/04/24 10:39:58;;;;;;;;;;;;;;;20.80;69.71;96356.77;585544;242;64936;-73
2022/04/24 10:42:33;;;;;;;;;;;;;;;20.81;70.21;96352.22;585530;242;65685;-72
2022/04/24 10:45:08;;;;;;;;;;;;;;;20.81;70.29;96349.55;585444;242;66993;-73
2022/04/24 10:47:42;;;;;;;;;;;;;;;20.81;69.92;96352.22;586140;240;66782;-73
2022/04/24 10:50:10;;;;;;;;;;;;;;;20.81;69.34;96357.56;585550;240;65537;-73
2022/04/24 10:52:44;;;;;;;;;;;;;;;20.80;68.79;96353.31;585490;242;67337;-73
2022/04/24 10:55:15;;;;;;;;;;;;;;;20.80;68.81;96348.77;585464;242;64823;-73
2022/04/24 10:57:44;;;;;;;;;;;;;;;20.81;69.63;96350.34;584670;242;63105;-73
2022/04/24 11:00:25;;;;;;;;;;;;;;;20.79;69.80;96347.19;585455;242;67124;-73
2022/04/24 11:02:53;;;;;;;;;;;;;;;20.80;69.69;96353.31;583304;242;64873;-73
2022/04/24 11:05:21;;;;;;;;;;;;;;;20.80;69.42;96351.43;585713;240;63070;-73
2022/04/24 11:07:49;;;;;;;;;;;;;;;20.79;69.51;96352.52;585499;242;67074;-73
2022/04/24 11:10:20;;;;;;;;;;;;;;;20.80;69.75;96348.77;585550;242;67224;-73
2022/04/24 11:12:48;;;;;;;;;;;;;;;20.79;70.88;96349.06;582680;242;63138;-73
2022/04/24 11:15:16;;;;;;;;;;;;;;;20.80;70.00;96337.29;585535;242;67239;-73
2022/04/24 11:17:43;;;;;;;;;;;;;;;20.80;69.83;96342.63;585604;242;66921;-73
2022/04/24 11:20:13;;;;;;;;;;;;;;;20.79;69.26;96346.39;582915;242;65418;-73
2022/04/24 11:22:47;;;;;;;;;;;;;;;20.78;68.84;96342.91;585018;242;67243;-73
2022/04/24 11:25:16;;;;;;;;;;;;;;;20.79;69.89;96341.84;585267;241;65002;-73
2022/04/24 11:27:44;;;;;;;;;;;;;;;20.79;69.54;96347.19;585561;242;63019;-73
2022/04/24 11:30:16;;;;;;;;;;;;;;;20.78;69.81;96344.78;585576;242;66982;-73
2022/04/24 11:32:45;;;;;;;;;;;;;;;20.78;69.40;96331.43;585559;240;66511;-74
2022/04/24 11:35:12;;;;;;;;;;;;;;;20.80;69.60;96339.96;586105;242;65414;-73
2022/04/24 11:37:41;;;;;;;;;;;;;;;20.78;69.51;96326.87;586475;241;67085;-74
2022/04/24 11:40:09;;;;;;;;;;;;;;;20.78;69.90;96320.75;586514;242;67294;-74
2022/04/24 11:42:37;;;;;;;;;;;;;;;20.77;69.40;96316.50;586499;242;65460;-73
2022/04/24 11:50:52;;;;;;;;;;;;;;;20.79;69.82;96309.01;586617;242;65396;-72
2022/04/24 11:53:21;;;;;;;;;;;;;;;20.78;70.05;96310.07;586483;242;67227;-72
2022/04/24 11:56:04;;;;;;;;;;;;;;;20.78;70.01;96307.40;586458;242;66772;-72
2022/04/24 11:58:35;;;;;;;;;;;;;;;20.76;70.03;96299.69;586346;241;65458;-73
2022/04/24 12:01:03;;;;;;;;;;;;;;;20.76;69.50;96296.20;586469;242;66824;-72
2022/04/24 12:03:32;;;;;;;;;;;;;;;20.76;69.22;96289.01;586586;242;65105;-72
2022/04/24 12:06:03;;;;;;;;;;;;;;;20.76;69.54;96297.02;586448;241;65319;-73
2022/04/24 12:08:45;;;;;;;;;;;;;;;20.76;69.71;96291.69;586484;241;67348;-72
2022/04/24 12:11:14;;;;;;;;;;;;;;;20.78;69.49;96291.38;586571;241;64421;-72
2022/04/24 12:13:42;;;;;;;;;;;;;;;20.77;69.61;96284.45;584244;242;63640;-72
2022/04/24 12:16:09;;;;;;;;;;;;;;;20.76;69.77;96277.52;586461;241;67198;-72
2022/04/24 12:18:37;;;;;;;;;;;;;;;20.77;70.02;96277.23;586623;241;64845;-72
2022/04/24 12:21:06;;;;;;;;;;;;;;;20.76;69.49;96278.33;586509;242;65402;-72
2022/04/24 12:23:34;;;;;;;;;;;;;;;20.76;69.80;96266.83;586088;242;64924;-72
2022/04/24 12:26:02;;;;;;;;;;;;;;;20.75;70.11;96267.92;586534;242;66911;-72
2022/04/24 12:28:35;;;;;;;;;;;;;;;20.76;69.50;96261.48;586626;240;65434;-72
2022/04/24 12:31:03;;;;;;;;;;;;;;;20.75;69.88;96254.57;586422;241;65255;-73
2022/04/24 12:33:31;;;;;;;;;;;;;;;20.75;69.48;96251.91;583378;241;67901;-73
2022/04/24 12:36:15;;;;;;;;;;;;;;;20.75;69.62;96242.01;585369;240;64943;-73
2022/04/24 12:38:44;;;;;;;;;;;;;;;20.76;69.40;96245.47;586077;240;65769;-73
2022/04/24 12:41:13;;;;;;;;;;;;;;;20.76;69.71;96245.47;583685;240;66716;-73
2022/04/24 12:43:41;;;;;;;;;;;;;;;20.76;70.15;96250.81;586055;242;65175;-73
2022/04/24 12:46:08;;;;;;;;;;;;;;;20.76;70.11;96242.80;586061;242;67261;-73
2022/04/24 12:48:37;;;;;;;;;;;;;;;20.75;69.74;96244.68;586070;241;66554;-73
2022/04/24 12:51:04;;;;;;;;;;;;;;;20.75;69.97;96246.56;585742;242;65241;-73
2022/04/24 12:53:32;;;;;;;;;;;;;;;20.74;69.94;96239.64;586058;242;67072;-73
2022/04/24 12:55:59;;;;;;;;;;;;;;;20.75;69.94;96241.22;586036;242;65164;-73
2022/04/24 12:58:27;;;;;;;;;;;;;;;20.74;70.10;96239.64;586108;242;65444;-73
2022/04/24 13:00:54;;;;;;;;;;;;;;;20.75;69.47;96227.87;586038;242;67186;-73